USTRANSCOM 7743


LERT
Naval Station Rota
Rota, ES
LICZ
NAS Sigonella
Sigonella, IT

Activity Log

Date Flight Route Aircraft Duration
06/19/2019 CMB843 MGA2Z MGA UN851 MHN UM603 ORKUM M603 ALG M732 CAR M871 LIBRO LIBRO2N B752 2h 50m
03/07/2019 CMB843 MGA2Z MGA UN851 MHN UM603 ORKUM M603 ALG M732 CAR M871 LIBRO LIBRO2N B752 2h 27m

Route Details

Aircraft Information
Primary: Boeing 757-200SF
Backup: Not Available
Route Data
Distance: 1021nm
Sched. Duration: 2h 45m
Avg. Duration: 2h 38m (-7m)
Times Flown: 2
Recm'd Route: MGA2Z MGA UN851 MHN UM603 ORKUM M603 ALG M732 CAR M871 LIBRO LIBRO2N
Planned Altitude: 35,000ft
Origin Wx: LERT 130000Z 16005KT CAVOK 24/21 Q1016 NOSIG
Dest. Wx: LICZ 122355Z 33003KT CAVOK 25/24 Q1016 RMK SKC VIS MIN 9999 WIND THR28 32004KT WIND THR10 33003KT A3003 BLU
Notes: USTRANSCOM CONTRACT FLIGHT

Financial History
Total Freight: 85,063lbs
Average Load: 42,532lbs/flt
Fuel Used: 42,015lbs
Avg. Fuel Used: 21,008lbs/flt
Fuel Expense: $33,612
Avg. Fuel Expense: $16,806
Avg. Fuel Cost: $0.80/lbs
Total Gross Income: $222,865
Pilot Pay: $378
Total Expenses: $24,173
Total Revenue: $163,845
Average Revenue: $111,432.53